Time;durP1;ratioP1;P1;durP2;ratioP2;P2;SDS_P1;SDS_P2;PMS_P1;PMS_P2;Temp;Humidity;BMP_temperature;BMP_pressure;BME280_temperature;BME280_humidity;BME280_pressure;Samples;Min_cycle;Max_cycle;Signal;HPM_P1;HPM_P2
2022/07/16 00:01:28;;;;;;;5.53;2.00;;;12.90;99.90;;;;;;4986748;28;20129;-88
2022/07/16 00:04:02;;;;;;;13.13;2.42;;;12.90;99.90;;;;;;4970163;28;20061;-87
2022/07/16 00:06:29;;;;;;;4.72;2.28;;;12.80;99.90;;;;;;4965799;28;20045;-87
2022/07/16 00:08:55;;;;;;;5.63;2.42;;;12.80;99.90;;;;;;4969763;28;20030;-88
2022/07/16 00:11:22;;;;;;;5.70;2.38;;;12.70;99.90;;;;;;4969827;28;20031;-88
2022/07/16 00:13:48;;;;;;;5.07;2.30;;;12.80;99.90;;;;;;4969549;28;20050;-88
2022/07/16 00:16:15;;;;;;;7.25;2.25;;;12.80;99.90;;;;;;4953715;28;20030;-86
2022/07/16 00:21:28;;;;;;;3.95;2.25;;;12.70;99.90;;;;;;4985756;28;20106;-87
2022/07/16 00:23:59;;;;;;;3.65;1.92;;;12.70;99.90;;;;;;4969638;28;20027;-87
2022/07/16 00:26:25;;;;;;;8.20;2.53;;;12.60;99.90;;;;;;4981641;28;20046;-88
2022/07/16 00:28:50;;;;;;;4.07;2.10;;;12.60;99.90;;;;;;4969509;28;20487;-88
2022/07/16 00:31:16;;;;;;;5.05;2.03;;;12.50;99.90;;;;;;4970187;28;20034;-88
2022/07/16 00:33:42;;;;;;;6.43;2.40;;;12.50;99.90;;;;;;4974937;28;20033;-87
2022/07/16 00:36:08;;;;;;;4.30;1.92;;;12.50;99.90;;;;;;4982009;28;20119;-88
2022/07/16 00:38:37;;;;;;;5.28;2.03;;;12.40;99.90;;;;;;4982235;28;20038;-88
2022/07/16 00:41:03;;;;;;;4.60;2.08;;;12.30;99.90;;;;;;4973330;28;20579;-87
2022/07/16 00:43:28;;;;;;;6.68;2.80;;;12.30;99.90;;;;;;4973722;28;20049;-87
2022/07/16 00:45:54;;;;;;;5.40;2.10;;;12.20;99.90;;;;;;4973087;28;20048;-87
2022/07/16 00:48:20;;;;;;;9.27;3.35;;;12.10;99.90;;;;;;4988809;28;20050;-87
2022/07/16 00:50:46;;;;;;;4.88;2.40;;;12.10;99.90;;;;;;4972449;28;20058;-86
2022/07/16 00:53:19;;;;;;;7.25;2.58;;;12.00;99.90;;;;;;4987759;28;20030;-89
2022/07/16 00:55:45;;;;;;;9.57;2.90;;;12.00;99.90;;;;;;4978552;28;20472;-87
2022/07/16 00:58:11;;;;;;;5.78;3.92;;;11.90;99.90;;;;;;4988589;28;20074;-87
2022/07/16 01:00:36;;;;;;;13.43;4.82;;;11.80;99.90;;;;;;4972805;28;20069;-87
2022/07/16 01:03:05;;;;;;;6.90;2.40;;;11.70;99.90;;;;;;4972468;28;20035;-87
2022/07/16 01:05:33;;;;;;;3.65;2.35;;;11.70;99.90;;;;;;4967961;28;20109;-87
2022/07/16 01:07:59;;;;;;;8.57;2.60;;;11.70;99.90;;;;;;5006739;28;20054;-87
2022/07/16 01:10:25;;;;;;;14.20;3.03;;;11.60;99.90;;;;;;4996204;28;20068;-86
2022/07/16 01:12:51;;;;;;;6.20;2.80;;;11.60;99.90;;;;;;4996084;28;20030;-87
2022/07/16 01:15:17;;;;;;;7.18;2.22;;;11.50;99.90;;;;;;4987759;28;20030;-88
2022/07/16 01:17:43;;;;;;;11.23;2.97;;;11.50;99.90;;;;;;4983448;28;20224;-88
2022/07/16 01:20:16;;;;;;;10.63;2.90;;;11.40;99.90;;;;;;4988028;28;20116;-87
2022/07/16 01:22:45;;;;;;;4.97;2.83;;;11.30;99.90;;;;;;4970016;28;20046;-87
2022/07/16 01:25:11;;;;;;;6.65;2.72;;;11.40;99.90;;;;;;5008913;28;20056;-88
2022/07/16 01:27:38;;;;;;;5.13;2.10;;;11.30;99.90;;;;;;4982461;28;20030;-87
2022/07/16 01:30:10;;;;;;;6.10;2.63;;;11.30;99.90;;;;;;4970280;28;20037;-88
2022/07/16 01:32:37;;;;;;;6.78;3.25;;;11.20;99.90;;;;;;4993432;28;20419;-87
2022/07/16 01:35:04;;;;;;;3.42;2.33;;;11.20;99.90;;;;;;4989379;28;20076;-87
2022/07/16 01:37:30;;;;;;;5.35;2.80;;;11.10;99.90;;;;;;4974007;28;20030;-87
2022/07/16 01:39:56;;;;;;;5.43;3.25;;;11.10;99.90;;;;;;4970523;28;20041;-87
2022/07/16 01:42:22;;;;;;;7.20;2.85;;;11.00;99.90;;;;;;4984678;28;20026;-87
2022/07/16 01:44:47;;;;;;;5.28;2.92;;;10.90;99.90;;;;;;4965581;28;20242;-87
2022/07/16 01:47:16;;;;;;;4.85;2.78;;;10.90;99.90;;;;;;4991776;28;20034;-86
2022/07/16 01:49:42;;;;;;;4.45;2.97;;;10.90;99.90;;;;;;4975458;28;20030;-86
2022/07/16 01:52:17;;;;;;;8.70;2.30;;;10.80;99.90;;;;;;4974608;28;20041;-87
2022/07/16 01:54:50;;;;;;;5.60;2.55;;;10.80;99.90;;;;;;4989994;28;20042;-89
2022/07/16 01:57:16;;;;;;;5.97;2.40;;;10.80;99.90;;;;;;5015357;28;20018;-88
2022/07/16 01:59:43;;;;;;;8.60;2.90;;;10.80;99.90;;;;;;4978317;28;20034;-88
2022/07/16 02:02:09;;;;;;;4.05;2.17;;;10.80;99.90;;;;;;4976228;28;20574;-87
2022/07/16 02:04:35;;;;;;;5.35;2.53;;;10.80;99.90;;;;;;4993525;28;20034;-88
2022/07/16 02:07:04;;;;;;;4.88;2.65;;;10.70;99.90;;;;;;4974413;28;20045;-87
2022/07/16 02:09:29;;;;;;;6.25;2.40;;;10.70;99.90;;;;;;4990550;28;20687;-87
2022/07/16 02:11:55;;;;;;;7.63;2.60;;;10.60;99.90;;;;;;4989953;28;20030;-87
2022/07/16 02:14:21;;;;;;;4.60;2.60;;;10.60;99.90;;;;;;4989972;28;20034;-87
2022/07/16 02:16:47;;;;;;;3.95;2.65;;;10.50;99.90;;;;;;4990514;28;20038;-87
2022/07/16 02:19:13;;;;;;;3.17;2.17;;;10.50;99.90;;;;;;4974171;28;20038;-87
2022/07/16 02:21:38;;;;;;;4.38;2.50;;;10.40;99.90;;;;;;4973374;28;20034;-87
2022/07/16 02:24:07;;;;;;;4.75;2.67;;;10.30;99.90;;;;;;4973375;28;20030;-87
2022/07/16 02:26:32;;;;;;;5.85;2.47;;;10.30;99.90;;;;;;5005732;28;20495;-87
2022/07/16 02:29:00;;;;;;;3.67;2.33;;;10.30;99.90;;;;;;4973408;28;20077;-88
2022/07/16 02:31:25;;;;;;;9.60;3.03;;;10.20;99.90;;;;;;4973867;28;20060;-86
2022/07/16 02:33:51;;;;;;;5.35;2.38;;;10.30;99.90;;;;;;4973828;28;20102;-88
2022/07/16 02:36:17;;;;;;;7.72;3.00;;;10.30;99.90;;;;;;4973942;28;20030;-87
2022/07/16 02:38:45;;;;;;;7.50;2.78;;;10.30;99.90;;;;;;4973864;28;20037;-87
2022/07/16 02:41:12;;;;;;;4.07;2.10;;;10.20;99.90;;;;;;4991049;28;20034;-87
2022/07/16 02:43:38;;;;;;;3.83;2.45;;;10.20;99.90;;;;;;4989448;28;20078;-87
2022/07/16 02:46:03;;;;;;;5.68;2.45;;;10.00;99.90;;;;;;4973330;28;20053;-87
2022/07/16 02:48:29;;;;;;;6.57;3.15;;;10.00;99.90;;;;;;4973238;28;20685;-87
2022/07/16 02:50:55;;;;;;;6.13;2.70;;;9.90;99.90;;;;;;4973880;28;20030;-86
2022/07/16 02:53:23;;;;;;;4.13;2.38;;;9.80;99.90;;;;;;4989194;28;20104;-87
2022/07/16 02:55:49;;;;;;;4.97;2.55;;;9.80;99.90;;;;;;4989099;28;20030;-87
2022/07/16 02:58:14;;;;;;;8.32;2.97;;;9.70;99.90;;;;;;4973023;28;20455;-88
2022/07/16 03:00:40;;;;;;;8.15;2.80;;;9.70;99.90;;;;;;4973423;28;20064;-87
2022/07/16 03:03:06;;;;;;;3.80;2.40;;;9.70;99.90;;;;;;4973134;28;20129;-86
2022/07/16 03:05:31;;;;;;;6.00;2.70;;;9.80;99.90;;;;;;5005160;28;20026;-85
2022/07/16 03:08:00;;;;;;;4.90;2.40;;;9.70;99.90;;;;;;4972753;28;20037;-87
2022/07/16 03:10:28;;;;;;;5.00;2.47;;;9.60;99.90;;;;;;5005317;28;20032;-86
2022/07/16 03:12:54;;;;;;;3.78;2.25;;;9.60;99.90;;;;;;4989485;28;20277;-88
2022/07/16 03:15:20;;;;;;;4.50;2.47;;;9.60;99.90;;;;;;4973223;28;20053;-87
2022/07/16 03:17:45;;;;;;;7.65;2.97;;;9.60;99.90;;;;;;5005935;28;20060;-86
2022/07/16 03:20:12;;;;;;;7.38;2.35;;;9.50;99.90;;;;;;4974055;28;20040;-87
2022/07/16 03:22:46;;;;;;;3.80;2.38;;;9.50;99.90;;;;;;4989633;28;20034;-87
2022/07/16 03:25:13;;;;;;;7.93;2.70;;;9.50;99.90;;;;;;4973053;28;20029;-87
2022/07/16 03:27:39;;;;;;;9.63;3.33;;;9.60;99.90;;;;;;5005893;28;20105;-86
2022/07/16 03:30:05;;;;;;;5.90;3.03;;;9.60;99.90;;;;;;5005413;28;20129;-87
2022/07/16 03:32:31;;;;;;;4.65;2.60;;;9.60;99.90;;;;;;4989028;28;20030;-86
2022/07/16 03:35:02;;;;;;;7.05;2.70;;;9.50;99.90;;;;;;4970954;28;20038;-86
2022/07/16 03:37:28;;;;;;;6.28;2.75;;;9.50;99.90;;;;;;4989379;28;20030;-87
2022/07/16 03:39:53;;;;;;;8.10;3.33;;;9.40;99.90;;;;;;4999938;28;20088;-87
2022/07/16 03:42:19;;;;;;;4.53;2.50;;;9.50;99.90;;;;;;4992285;28;20029;-87
2022/07/16 03:44:45;;;;;;;7.45;2.38;;;9.50;99.90;;;;;;4992098;28;20053;-88
2022/07/16 03:47:11;;;;;;;9.57;3.08;;;9.40;99.90;;;;;;4992515;28;20042;-87
2022/07/16 03:49:39;;;;;;;4.30;2.60;;;9.40;99.90;;;;;;4991948;28;20033;-87
2022/07/16 03:52:04;;;;;;;5.10;3.03;;;9.40;99.90;;;;;;5008396;28;20037;-86
2022/07/16 03:54:30;;;;;;;9.55;3.00;;;9.40;99.90;;;;;;5009524;28;20030;-87
2022/07/16 03:56:56;;;;;;;7.10;2.72;;;9.40;99.90;;;;;;5011440;28;20038;-87
2022/07/16 03:59:22;;;;;;;5.78;3.03;;;9.40;99.90;;;;;;4995364;28;20395;-87
2022/07/16 04:01:47;;;;;;;9.45;3.40;;;9.50;99.90;;;;;;4994830;28;20045;-87
2022/07/16 04:04:14;;;;;;;8.02;3.67;;;9.50;99.90;;;;;;4994152;28;20076;-87
2022/07/16 04:06:47;;;;;;;5.13;3.50;;;9.60;99.90;;;;;;4994105;28;20038;-87
2022/07/16 04:09:13;;;;;;;8.60;3.50;;;9.60;99.90;;;;;;4993597;28;20441;-86
2022/07/16 04:11:38;;;;;;;7.88;4.40;;;9.60;99.90;;;;;;4997162;28;20022;-87
2022/07/16 04:14:04;;;;;;;6.85;3.65;;;9.60;99.90;;;;;;5014040;28;20053;-87
2022/07/16 04:16:30;;;;;;;11.60;5.53;;;9.70;99.90;;;;;;5032988;28;20342;-87
2022/07/16 04:18:58;;;;;;;16.10;5.45;;;9.80;99.90;;;;;;4995559;28;20566;-87
2022/07/16 04:21:24;;;;;;;6.18;4.20;;;9.80;99.90;;;;;;4996527;28;20029;-87
2022/07/16 04:23:50;;;;;;;8.65;3.72;;;9.90;99.90;;;;;;4996304;28;20119;-87
2022/07/16 04:26:15;;;;;;;6.53;3.17;;;10.00;99.90;;;;;;5014150;28;20102;-86
2022/07/16 04:28:41;;;;;;;9.65;3.67;;;10.10;99.90;;;;;;5005324;28;20098;-87
2022/07/16 04:31:07;;;;;;;10.32;3.00;;;10.10;99.90;;;;;;5029545;28;20037;-88
2022/07/16 04:33:33;;;;;;;7.95;2.80;;;10.10;99.90;;;;;;5033232;28;20060;-87
2022/07/16 04:35:58;;;;;;;5.95;2.75;;;10.20;99.90;;;;;;5033358;28;20048;-89
2022/07/16 04:38:24;;;;;;;5.38;2.70;;;10.20;99.90;;;;;;5018919;28;20062;-88
2022/07/16 04:40:50;;;;;;;4.57;2.45;;;10.30;99.90;;;;;;5020364;28;20022;-88
2022/07/16 04:43:16;;;;;;;4.30;2.28;;;10.40;99.90;;;;;;5017879;28;20106;-88
2022/07/16 04:45:41;;;;;;;8.88;2.55;;;10.50;99.90;;;;;;5018519;28;20030;-89
2022/07/16 04:48:07;;;;;;;6.60;2.20;;;10.70;99.90;;;;;;5025907;28;20030;-87
2022/07/16 04:50:35;;;;;;;5.72;2.22;;;10.80;99.90;;;;;;4998511;28;20034;-87
2022/07/16 04:53:01;;;;;;;10.35;2.50;;;10.90;99.90;;;;;;5016817;28;20034;-86
2022/07/16 04:55:27;;;;;;;6.88;2.80;;;11.00;99.90;;;;;;5016595;28;20084;-87
2022/07/16 04:57:52;;;;;;;4.45;2.25;;;11.20;99.90;;;;;;4998358;28;20034;-86
2022/07/16 05:00:18;;;;;;;6.35;2.25;;;11.40;99.90;;;;;;4998589;28;20372;-87
2022/07/16 05:02:56;;;;;;;8.80;2.70;;;11.50;99.90;;;;;;4998929;28;20041;-87
2022/07/16 05:05:22;;;;;;;3.78;2.00;;;11.70;99.90;;;;;;5014879;28;20033;-86
2022/07/16 05:07:49;;;;;;;4.72;2.17;;;11.70;99.90;;;;;;4997876;28;20057;-87
2022/07/16 05:10:15;;;;;;;6.70;2.58;;;11.90;99.90;;;;;;4996095;28;20037;-86
2022/07/16 05:12:41;;;;;;;5.30;2.15;;;11.90;99.90;;;;;;4996208;28;20034;-86
2022/07/16 05:15:15;;;;;;;4.68;2.30;;;12.00;99.90;;;;;;5012187;28;20034;-87
2022/07/16 05:17:41;;;;;;;4.47;2.05;;;12.20;99.90;;;;;;4995775;28;20404;-87
2022/07/16 05:20:07;;;;;;;5.60;2.28;;;12.30;99.90;;;;;;4994900;28;20038;-87
2022/07/16 05:22:33;;;;;;;6.18;2.17;;;12.40;99.90;;;;;;4995262;28;20045;-86
2022/07/16 05:24:59;;;;;;;5.82;2.30;;;12.50;99.90;;;;;;4995271;28;20060;-87
2022/07/16 05:27:24;;;;;;;7.72;2.78;;;12.60;99.90;;;;;;4995509;28;20049;-86
2022/07/16 05:29:53;;;;;;;7.20;2.58;;;12.80;99.90;;;;;;5022202;28;20045;-87
2022/07/16 05:32:18;;;;;;;5.05;2.38;;;12.90;99.90;;;;;;5014413;28;20030;-88
2022/07/16 05:34:44;;;;;;;6.43;2.22;;;13.10;99.90;;;;;;4990141;28;20117;-86
2022/07/16 05:37:10;;;;;;;4.82;1.85;;;13.30;99.90;;;;;;4994082;28;20033;-86
2022/07/16 05:39:36;;;;;;;3.47;1.70;;;13.40;99.90;;;;;;5015784;28;20060;-87
2022/07/16 05:42:02;;;;;;;2.30;1.50;;;13.50;99.90;;;;;;5008139;28;20065;-86
2022/07/16 05:44:30;;;;;;;3.92;1.75;;;13.70;99.90;;;;;;4994465;28;20037;-86
2022/07/16 05:46:56;;;;;;;6.35;1.60;;;13.90;99.90;;;;;;5010848;28;20688;-86
2022/07/16 05:49:21;;;;;;;2.92;1.33;;;14.10;99.90;;;;;;4989404;28;20030;-87
2022/07/16 05:51:47;;;;;;;7.00;1.98;;;14.20;99.90;;;;;;4993394;28;20055;-86
2022/07/16 05:54:13;;;;;;;7.25;2.38;;;14.40;99.90;;;;;;4993364;28;20045;-87
2022/07/16 05:56:39;;;;;;;4.03;1.60;;;14.50;99.90;;;;;;4999722;28;20036;-87
2022/07/16 05:59:07;;;;;;;5.70;1.58;;;14.60;99.90;;;;;;4989371;28;20050;-86
2022/07/16 06:01:35;;;;;;;3.92;2.17;;;14.80;99.90;;;;;;4987216;28;20039;-86
2022/07/16 06:04:01;;;;;;;3.53;1.63;;;15.00;99.90;;;;;;4986308;28;20484;-87
2022/07/16 06:06:26;;;;;;;7.63;1.85;;;15.10;99.90;;;;;;4968294;28;20039;-87
2022/07/16 06:08:52;;;;;;;5.30;2.13;;;15.30;99.90;;;;;;4980917;28;20030;-88
2022/07/16 06:11:18;;;;;;;10.55;1.88;;;15.50;99.90;;;;;;4986830;28;20031;-87
2022/07/16 06:13:44;;;;;;;4.97;1.80;;;15.60;99.90;;;;;;4996558;28;20062;-86
2022/07/16 06:16:19;;;;;;;3.05;1.20;;;15.80;99.90;;;;;;5000423;28;20111;-87
2022/07/16 06:18:45;;;;;;;3.83;1.73;;;15.90;99.90;;;;;;4970854;28;20518;-86
2022/07/16 06:21:10;;;;;;;4.32;1.45;;;16.10;99.90;;;;;;4986846;28;20065;-86
2022/07/16 06:23:36;;;;;;;8.68;1.63;;;16.30;99.90;;;;;;4971855;28;20039;-86
2022/07/16 06:26:09;;;;;;;5.95;2.72;;;16.40;99.90;;;;;;4987814;28;20038;-86
2022/07/16 06:28:35;;;;;;;5.55;1.77;;;16.50;99.90;;;;;;4982791;28;20494;-88
2022/07/16 06:31:01;;;;;;;6.30;1.88;;;16.60;99.90;;;;;;4998141;28;20027;-86
2022/07/16 06:33:26;;;;;;;6.55;1.80;;;16.70;99.90;;;;;;4994924;28;20035;-86
2022/07/16 06:35:52;;;;;;;4.97;1.65;;;16.80;99.90;;;;;;5001223;28;20026;-87
2022/07/16 06:38:18;;;;;;;3.97;1.90;;;16.90;99.90;;;;;;4987391;28;20041;-85
2022/07/16 06:40:49;;;;;;;5.20;1.88;;;16.90;99.90;;;;;;4985285;28;20093;-87
2022/07/16 06:43:15;;;;;;;12.82;3.17;;;17.00;99.90;;;;;;4989251;28;20047;-86
2022/07/16 06:45:44;;;;;;;5.18;2.17;;;17.20;99.90;;;;;;4973921;28;20034;-87
2022/07/16 06:48:10;;;;;;;3.97;1.60;;;17.20;99.90;;;;;;5002559;28;20042;-87
2022/07/16 06:50:36;;;;;;;12.38;1.90;;;17.20;99.90;;;;;;4988901;28;20037;-86
2022/07/16 06:53:04;;;;;;;7.03;2.08;;;17.30;99.90;;;;;;5010252;28;20479;-87
2022/07/16 06:55:30;;;;;;;12.57;2.22;;;17.30;99.90;;;;;;4992927;28;20037;-87
2022/07/16 06:57:56;;;;;;;5.95;1.85;;;17.40;99.90;;;;;;5017211;28;20033;-90
2022/07/16 07:00:22;;;;;;;6.70;2.00;;;17.40;99.90;;;;;;5000138;28;20037;-87
2022/07/16 07:02:47;;;;;;;8.75;1.77;;;17.50;99.90;;;;;;4993523;28;20083;-87
2022/07/16 07:05:13;;;;;;;6.78;2.22;;;17.50;99.90;;;;;;5025516;28;20425;-86
2022/07/16 07:07:39;;;;;;;9.43;2.00;;;17.60;99.90;;;;;;4985779;28;20034;-87
2022/07/16 07:10:13;;;;;;;3.72;1.73;;;17.60;99.90;;;;;;4999863;28;20670;-86
2022/07/16 07:12:39;;;;;;;7.72;2.42;;;17.70;99.90;;;;;;4995097;28;20038;-90
2022/07/16 07:15:05;;;;;;;5.90;1.88;;;17.70;99.90;;;;;;4992434;28;20034;-86
2022/07/16 07:17:31;;;;;;;6.25;1.90;;;17.70;99.90;;;;;;4975080;28;20251;-86
2022/07/16 07:20:06;;;;;;;3.30;1.52;;;17.70;99.90;;;;;;4992118;28;20481;-86
2022/07/16 07:22:32;;;;;;;5.55;2.30;;;17.70;99.90;;;;;;4973070;28;20322;-86
2022/07/16 07:24:57;;;;;;;3.22;1.90;;;17.70;99.90;;;;;;4975445;28;20575;-87
2022/07/16 07:27:26;;;;;;;7.60;2.60;;;17.60;99.90;;;;;;4974564;28;20042;-87
2022/07/16 07:29:52;;;;;;;6.50;2.00;;;17.60;99.90;;;;;;4974926;28;20022;-86
2022/07/16 07:32:26;;;;;;;7.53;1.92;;;17.60;99.90;;;;;;4973442;28;20376;-86
2022/07/16 07:34:52;;;;;;;3.33;2.00;;;17.80;99.90;;;;;;5006439;28;20384;-85
2022/07/16 07:37:18;;;;;;;6.03;2.33;;;17.80;99.90;;;;;;4974079;28;20027;-86
2022/07/16 07:39:44;;;;;;;4.75;2.00;;;18.00;99.90;;;;;;4974041;28;20109;-86
2022/07/16 07:42:10;;;;;;;4.63;2.20;;;18.00;99.90;;;;;;4973927;28;20038;-89
2022/07/16 07:44:38;;;;;;;13.07;2.75;;;17.90;99.90;;;;;;4992711;28;20042;-85
2022/07/16 07:47:04;;;;;;;13.25;4.20;;;17.90;99.90;;;;;;4994478;28;20058;-89
2022/07/16 07:49:30;;;;;;;6.28;2.17;;;17.90;99.90;;;;;;4977513;28;20077;-87
2022/07/16 07:51:56;;;;;;;6.72;2.28;;;17.90;99.90;;;;;;4994353;28;20096;-86
2022/07/16 07:54:22;;;;;;;7.20;2.33;;;17.90;99.90;;;;;;4994147;28;20034;-86
2022/07/16 07:56:49;;;;;;;5.88;2.38;;;18.00;99.90;;;;;;4987538;28;20504;-90
2022/07/16 07:59:17;;;;;;;9.13;3.20;;;18.20;99.90;;;;;;5004355;28;20073;-87
2022/07/16 08:01:44;;;;;;;5.25;1.75;;;19.20;99.90;;;;;;4994056;28;20027;-88
2022/07/16 08:04:10;;;;;;;6.32;3.20;;;20.90;99.30;;;;;;4986008;28;20120;-87
2022/07/16 08:06:36;;;;;;;117.07;55.50;;;22.00;96.60;;;;;;4998029;28;20574;-87
2022/07/16 08:09:02;;;;;;;9.35;3.40;;;23.00;93.90;;;;;;4996885;28;20040;-86
2022/07/16 08:11:28;;;;;;;7.40;2.45;;;23.80;91.70;;;;;;4998298;28;20030;-85
2022/07/16 08:13:56;;;;;;;7.57;2.40;;;24.80;89.60;;;;;;4997901;28;20049;-86
2022/07/16 08:16:22;;;;;;;6.13;1.80;;;25.00;85.40;;;;;;4997812;28;20030;-89
2022/07/16 08:18:48;;;;;;;6.43;2.05;;;25.10;80.80;;;;;;5019845;28;20080;-89
2022/07/16 08:21:14;;;;;;;7.63;1.90;;;25.10;80.80;;;;;;5012189;28;20356;-86
2022/07/16 08:26:24;;;;;;;5.00;1.80;;;25.60;77.70;;;;;;5030278;28;20034;-87
2022/07/16 08:28:50;;;;;;;7.05;2.08;;;25.80;75.40;;;;;;4995650;28;20453;-87
2022/07/16 08:31:16;;;;;;;5.90;1.85;;;25.70;74.50;;;;;;4995832;28;20037;-86
2022/07/16 08:33:42;;;;;;;7.43;1.95;;;25.70;74.30;;;;;;5012355;28;20033;-88
2022/07/16 08:36:13;;;;;;;6.20;1.95;;;25.50;74.20;;;;;;4996097;28;20034;-87
2022/07/16 08:38:38;;;;;;;;;;;26.00;72.40;;;;;;4996894;28;20038;-88
2022/07/16 08:41:05;;;;;;;10.25;2.45;;;26.80;70.30;;;;;;4995541;28;19921;-87
2022/07/16 08:43:31;;;;;;;5.03;1.67;;;27.00;69.80;;;;;;4995385;28;20585;-87
2022/07/16 08:45:57;;;;;;;6.03;1.80;;;27.90;67.20;;;;;;4996153;28;20080;-88
2022/07/16 08:48:24;;;;;;;5.03;1.30;;;28.50;64.40;;;;;;4995875;28;20638;-87
2022/07/16 08:50:53;;;;;;;2.58;1.30;;;28.10;65.00;;;;;;4995869;28;20550;-87
2022/07/16 08:53:24;;;;;;;3.03;1.48;;;28.80;63.50;;;;;;4995096;28;20033;-86
2022/07/16 08:55:52;;;;;;;4.75;1.63;;;28.70;61.70;;;;;;4994719;28;20065;-87
2022/07/16 08:58:18;;;;;;;6.30;1.60;;;27.20;62.30;;;;;;4996594;28;20617;-89
2022/07/16 09:00:53;;;;;;;3.90;1.70;;;27.20;62.80;;;;;;5008962;28;20041;-86
2022/07/16 09:03:19;;;;;;;5.78;1.60;;;26.60;64.10;;;;;;5006456;28;20119;-88
2022/07/16 09:05:48;;;;;;;6.43;1.70;;;26.30;64.00;;;;;;5011488;28;20104;-87
2022/07/16 09:08:18;;;;;;;5.82;2.03;;;26.50;63.80;;;;;;4995671;28;20045;-87
2022/07/16 09:10:46;;;;;;;3.90;1.52;;;27.00;64.90;;;;;;4996486;28;20037;-87
2022/07/16 09:13:12;;;;;;;7.18;3.38;;;27.00;62.10;;;;;;5012668;28;20026;-89
2022/07/16 09:15:40;;;;;;;2.50;1.40;;;26.60;63.50;;;;;;5012386;28;20029;-87
2022/07/16 09:18:09;;;;;;;4.97;1.88;;;26.10;63.90;;;;;;5013357;28;20454;-87
2022/07/16 09:20:37;;;;;;;4.68;1.70;;;24.30;66.40;;;;;;5011864;28;20475;-87
2022/07/16 09:23:25;;;;;;;4.68;1.80;;;24.00;68.20;;;;;;4995649;28;20060;-87
2022/07/16 09:26:11;;;;;;;2.85;1.30;;;24.70;67.30;;;;;;4996051;28;20098;-88
2022/07/16 09:28:43;;;;;;;4.13;1.50;;;25.70;65.60;;;;;;5013029;28;20030;-87
2022/07/16 09:31:31;;;;;;;4.97;1.70;;;26.60;64.20;;;;;;4998914;28;20029;-88
2022/07/16 09:34:13;;;;;;;4.38;1.60;;;26.40;64.30;;;;;;4996997;28;20112;-87
2022/07/16 09:36:59;;;;;;;4.18;1.65;;;26.00;65.50;;;;;;5030278;28;20029;-88
2022/07/16 09:39:29;;;;;;;4.53;1.92;;;24.70;66.50;;;;;;4995766;28;20732;-87
2022/07/16 09:41:55;;;;;;;2.65;1.40;;;24.60;67.90;;;;;;5012308;28;20033;-87
2022/07/16 09:44:27;;;;;;;6.45;1.98;;;25.40;66.80;;;;;;4995955;28;20033;-87
2022/07/16 09:46:57;;;;;;;5.88;1.55;;;25.70;65.70;;;;;;5012826;28;20433;-87
2022/07/16 09:49:30;;;;;;;2.15;1.50;;;26.10;65.40;;;;;;5012797;28;20526;-89
2022/07/16 09:51:56;;;;;;;5.63;1.92;;;27.00;61.60;;;;;;5029826;28;20084;-87
2022/07/16 09:54:34;;;;;;;5.45;1.50;;;26.70;62.50;;;;;;5003518;28;20042;-87
2022/07/16 09:57:18;;;;;;;3.50;1.70;;;27.30;61.70;;;;;;5001404;28;20037;-87
2022/07/16 09:59:45;;;;;;;3.25;1.70;;;26.50;61.70;;;;;;5017875;28;20037;-88
2022/07/16 10:02:12;;;;;;;6.20;1.50;;;25.40;64.20;;;;;;4995362;28;20033;-87
2022/07/16 10:04:38;;;;;;;7.75;1.60;;;24.90;65.80;;;;;;5018059;28;20026;-90
2022/07/16 10:07:05;;;;;;;2.83;1.23;;;25.40;65.80;;;;;;4999727;28;20521;-87
2022/07/16 10:09:31;;;;;;;6.68;1.40;;;26.20;63.80;;;;;;4999701;28;20808;-88
2022/07/16 10:12:02;;;;;;;6.43;1.60;;;26.60;62.30;;;;;;4998173;28;20026;-88
2022/07/16 10:14:30;;;;;;;;;;;26.80;61.20;;;;;;4998164;28;20471;-87
2022/07/16 10:17:09;;;;;;;4.65;1.80;;;26.30;61.70;;;;;;4995493;28;19996;-87
2022/07/16 10:19:36;;;;;;;8.05;1.70;;;25.80;61.50;;;;;;5013718;28;20478;-87
2022/07/16 10:22:16;;;;;;;7.68;2.00;;;25.70;62.20;;;;;;4995947;28;20029;-87
2022/07/16 10:24:52;;;;;;;4.40;1.60;;;25.80;62.90;;;;;;5011942;28;20033;-86
2022/07/16 10:27:34;;;;;;;5.00;1.83;;;25.30;63.50;;;;;;4994734;28;20474;-87
2022/07/16 10:30:13;;;;;;;2.83;1.55;;;25.00;64.50;;;;;;4994389;28;20080;-87
2022/07/16 10:33:05;;;;;;;6.50;1.70;;;24.40;64.60;;;;;;5012090;28;20062;-88
2022/07/16 10:35:44;;;;;;;2.10;1.58;;;23.50;66.70;;;;;;5010585;28;20630;-88
2022/07/16 10:38:13;;;;;;;4.50;1.92;;;22.90;68.20;;;;;;5011438;28;20456;-87
2022/07/16 10:40:42;;;;;;;4.55;1.77;;;22.60;69.60;;;;;;5011493;28;20096;-87
2022/07/16 10:43:22;;;;;;;10.52;2.30;;;22.50;70.20;;;;;;4994771;28;20041;-88
2022/07/16 10:45:54;;;;;;;6.72;1.80;;;22.80;71.90;;;;;;4995879;28;20037;-88
2022/07/16 10:48:21;;;;;;;4.50;2.05;;;23.90;69.70;;;;;;5011000;28;20058;-86
2022/07/16 10:51:13;;;;;;;4.65;2.65;;;24.40;66.40;;;;;;4994166;28;20467;-87
2022/07/16 10:53:57;;;;;;;7.60;1.55;;;24.10;67.10;;;;;;5009320;28;20434;-87
2022/07/16 10:57:09;;;;;;;4.28;1.73;;;23.80;67.70;;;;;;5027237;28;20032;-88
2022/07/16 10:59:40;;;;;;;7.50;2.10;;;24.60;67.10;;;;;;5001537;28;20442;-88
2022/07/16 11:02:13;;;;;;;8.13;2.13;;;24.90;67.20;;;;;;4973203;28;20225;-88
2022/07/16 11:04:41;;;;;;;3.30;1.73;;;24.60;66.40;;;;;;5002030;28;20039;-88
2022/07/16 11:07:29;;;;;;;3.40;1.75;;;25.00;65.20;;;;;;5006023;28;20478;-87
2022/07/16 11:09:54;;;;;;;5.00;1.55;;;25.20;63.40;;;;;;5007463;28;20066;-89
2022/07/16 11:12:30;;;;;;;7.30;2.08;;;25.00;65.60;;;;;;4995647;28;20115;-90
2022/07/16 11:15:03;;;;;;;3.00;1.77;;;24.30;66.60;;;;;;4974414;28;20034;-87
2022/07/16 11:17:30;;;;;;;9.02;1.85;;;24.40;67.30;;;;;;4965239;28;20027;-87
2022/07/16 11:20:00;;;;;;;4.43;2.20;;;25.50;65.00;;;;;;4969244;28;20026;-87
2022/07/16 11:22:29;;;;;;;5.22;2.25;;;26.20;63.90;;;;;;4989671;28;20026;-88
2022/07/16 11:25:05;;;;;;;8.80;2.30;;;26.00;63.10;;;;;;4972240;28;20042;-86
2022/07/16 11:27:35;;;;;;;4.57;2.03;;;25.80;64.00;;;;;;4995539;28;20027;-90
2022/07/16 11:30:06;;;;;;;4.23;1.73;;;25.70;63.90;;;;;;5002883;28;20183;-87
2022/07/16 11:32:44;;;;;;;10.52;4.50;;;25.60;64.30;;;;;;4984762;28;20093;-88
2022/07/16 11:35:10;;;;;;;12.23;2.85;;;25.70;64.70;;;;;;5001313;28;20054;-88
2022/07/16 11:37:58;;;;;;;6.10;2.67;;;25.90;64.20;;;;;;4985269;28;20053;-88
2022/07/16 11:40:35;;;;;;;4.97;2.53;;;26.20;63.50;;;;;;4970604;28;20034;-89
2022/07/16 11:43:01;;;;;;;5.72;2.83;;;26.20;63.20;;;;;;4989031;28;20058;-90
2022/07/16 11:45:40;;;;;;;6.13;2.33;;;26.50;61.30;;;;;;4973851;28;20116;-89
2022/07/16 11:48:14;;;;;;;4.60;2.40;;;27.00;62.70;;;;;;4970299;28;20652;-88
2022/07/16 11:50:50;;;;;;;3.17;1.70;;;27.20;61.00;;;;;;5006159;28;20021;-87
2022/07/16 11:53:28;;;;;;;6.50;2.17;;;26.70;60.30;;;;;;4987420;28;20030;-87
2022/07/16 11:55:54;;;;;;;5.05;2.17;;;25.40;62.60;;;;;;5001583;28;20046;-88
2022/07/16 11:58:26;;;;;;;3.75;2.08;;;24.40;66.60;;;;;;4995936;28;20346;-91
2022/07/16 12:00:55;;;;;;;6.63;2.60;;;23.80;65.60;;;;;;4998785;28;20038;-88
2022/07/16 12:03:21;;;;;;;5.25;2.55;;;23.50;66.90;;;;;;5008680;28;20026;-87
2022/07/16 12:05:47;;;;;;;4.60;2.13;;;23.40;67.80;;;;;;4976869;28;20521;-88
2022/07/16 12:08:21;;;;;;;6.00;2.92;;;23.40;69.10;;;;;;5005206;28;20042;-88
2022/07/16 12:10:58;;;;;;;4.05;2.60;;;23.50;68.30;;;;;;4989587;28;20553;-87
2022/07/16 12:13:24;;;;;;;4.60;2.10;;;23.70;68.60;;;;;;4977752;28;20026;-87
2022/07/16 12:16:01;;;;;;;5.43;2.50;;;24.10;68.10;;;;;;4988708;28;20442;-86
2022/07/16 12:18:27;;;;;;;5.88;1.85;;;24.60;66.60;;;;;;4982179;28;20108;-87
2022/07/16 12:20:53;;;;;;;12.05;2.65;;;25.40;64.40;;;;;;4985372;28;20031;-86
2022/07/16 12:23:37;;;;;;;4.03;2.15;;;25.50;63.80;;;;;;4984177;28;20513;-87
2022/07/16 12:26:06;;;;;;;6.25;2.20;;;25.70;62.80;;;;;;4990322;28;20030;-88
2022/07/16 12:28:33;;;;;;;5.47;2.45;;;25.20;64.40;;;;;;4989711;28;20150;-87
2022/07/16 12:31:11;;;;;;;7.00;3.33;;;25.30;64.60;;;;;;5009695;28;20037;-88
2022/07/16 12:33:39;;;;;;;13.73;2.35;;;26.00;63.20;;;;;;4990171;28;20579;-87
2022/07/16 12:36:12;;;;;;;5.93;2.45;;;26.00;62.40;;;;;;5006777;28;20034;-89
2022/07/16 12:38:55;;;;;;;4.57;2.33;;;25.10;64.00;;;;;;4980091;28;20594;-87
2022/07/16 12:41:37;;;;;;;6.75;2.15;;;24.40;64.20;;;;;;4974487;28;20038;-89
2022/07/16 12:44:10;;;;;;;5.05;2.17;;;24.30;66.40;;;;;;4986352;28;20085;-87
2022/07/16 12:46:47;;;;;;;5.38;2.00;;;24.10;66.50;;;;;;4979633;28;20027;-87
2022/07/16 12:49:22;;;;;;;4.15;2.22;;;24.10;68.80;;;;;;4990987;28;20034;-88
2022/07/16 12:51:52;;;;;;;4.43;2.50;;;23.80;68.30;;;;;;4974618;28;20027;-87
2022/07/16 12:54:20;;;;;;;12.00;2.40;;;24.50;66.80;;;;;;4991008;28;20069;-87
2022/07/16 12:59:33;;;;;;;5.15;2.40;;;25.50;65.00;;;;;;4994192;28;20398;-88
2022/07/16 13:02:00;;;;;;;6.95;2.20;;;25.10;65.80;;;;;;4992767;28;20039;-87
2022/07/16 13:04:27;;;;;;;3.33;2.40;;;25.00;66.70;;;;;;4991529;28;20109;-88